Latest Weather Observations for Rowley Shoals

IDW60801

Issued at 9:13 pm WST Tuesday 28 January 2020 (issued every 10 minutes, with the page automatically refreshed every 10 minutes)

About weather observations | Map of weather stations | Latest weather observations for WA | Other Formats
Station Details ID: 200713 Name: ROWLEY SHOALS Lat: -17.52 Lon: 118.95 Height: 0.0 m
Data from the previous 72 hours. | See also: Recent months at Rowley Shoals
Date/Time
WST
Temp
°C
App
Temp
°C
Dew
Point
°C
Rel
Hum
%
Delta-T
°C
Wind Press
QNH
hPa
Press
MSL
hPa
Rain since
9am
mm
Dir  Spd
km/h
Gust
km/h
Spd
kts
Gust
kts
28/09:00pm - - - - - WNW 20 24 11 13 1008.1 1008.1 -
28/08:30pm - - - - - NW 22 24 12 13 1007.9 1007.9 -
28/08:00pm - - - - - NW 19 20 10 11 1007.7 1007.7 -
28/07:30pm - - - - - NW 17 17 9 9 1007.6 1007.6 -
28/07:00pm - - - - - NW 15 15 8 8 1007.4 1007.4 -
28/06:30pm - - - - - NW 9 11 5 6 1007.0 1007.0 -
28/06:00pm - - - - - NW 9 11 5 6 1006.7 1006.7 -
28/05:30pm - - - - - NW 7 11 4 6 1006.6 1006.6 -
28/05:00pm - - - - - NNW 7 9 4 5 1006.4 1006.4 -
28/04:30pm - - - - - NW 6 7 3 4 1006.3 1006.3 -
28/04:00pm - - - - - NNE 2 7 1 4 1006.5 1006.5 -
28/03:30pm - - - - - E 2 6 1 3 1006.8 1006.8 -
28/03:00pm - - - - - ESE 7 9 4 5 1006.9 1006.9 -
28/02:30pm - - - - - S 7 11 4 6 1007.1 1007.1 -
28/02:00pm - - - - - SSW 9 11 5 6 1007.2 1007.2 -
28/01:30pm - - - - - SSW 13 15 7 8 1007.4 1007.4 -
28/01:00pm - - - - - SSW 13 15 7 8 1007.6 1007.6 -
28/12:30pm - - - - - SW 13 15 7 8 1007.9 1007.9 -
28/12:00pm - - - - - SW 15 17 8 9 1008.1 1008.1 -
28/11:30am - - - - - SW 15 17 8 9 1008.4 1008.4 -
28/11:00am - - - - - SW 15 17 8 9 1008.5 1008.5 -
28/10:30am - - - - - SW 17 20 9 11 1008.5 1008.5 -
28/10:00am - - - - - SW 17 20 9 11 1008.9 1008.9 -
28/09:30am - - - - - WSW 19 20 10 11 1009.1 1009.1 -
28/09:00am - - - - - SW 19 20 10 11 1009.2 1009.2 -
28/08:30am - - - - - SW 20 24 11 13 1009.0 1009.0 -
28/08:00am - - - - - WSW 20 24 11 13 1008.8 1008.8 -
28/07:30am - - - - - WSW 24 28 13 15 1008.7 1008.7 -
28/07:00am - - - - - WSW 26 30 14 16 1008.4 1008.4 -
28/06:30am - - - - - WSW 24 28 13 15 1008.4 1008.4 -
28/06:00am - - - - - WSW 24 28 13 15 1008.1 1008.1 -
28/05:30am - - - - - W 24 30 13 16 1007.6 1007.6 -
28/05:00am - - - - - W 22 26 12 14 1007.5 1007.5 -
28/04:30am - - - - - WNW 24 28 13 15 1007.2 1007.2 -
28/04:00am - - - - - W 22 24 12 13 1007.1 1007.1 -
28/03:30am - - - - - WNW 22 26 12 14 1007.2 1007.2 -
28/03:00am - - - - - WNW 20 24 11 13 1007.2 1007.2 -
28/02:30am - - - - - WNW 22 26 12 14 1007.2 1007.2 -
28/02:00am - - - - - NW 22 26 12 14 1007.6 1007.6 -
28/01:30am - - - - - WNW 17 19 9 10 1008.3 1008.3 -
28/01:00am - - - - - W 17 20 9 11 1008.6 1008.6 -
28/12:30am - - - - - WNW 19 20 10 11 1008.4 1008.4 -
28/12:00am - - - - - WNW 15 17 8 9 1009.0 1009.0 -
 
Date/Time
WST
Temp
°C
App
Temp
°C
Dew
Point
°C
Rel
Hum
%
Delta-T
°C
Wind Press
QNH
hPa
Press
MSL
hPa
Rain since
9am
mm
Dir  Spd
km/h
Gust
km/h
Spd
kts
Gust
kts
27/11:30pm - - - - - NW 19 20 10 11 1009.0 1009.0 -
27/11:00pm - - - - - NW 11 15 6 8 1009.5 1009.5 -
27/10:30pm - - - - - NNW 11 13 6 7 1010.2 1010.2 -
27/10:00pm - - - - - NW 9 11 5 6 1009.9 1009.9 -
27/09:30pm - - - - - NW 7 9 4 5 1009.7 1009.7 -
27/09:00pm - - - - - WNW 7 9 4 5 1009.6 1009.6 -
27/08:30pm - - - - - WNW 9 9 5 5 1009.1 1009.1 -
27/08:00pm - - - - - WNW 11 13 6 7 1008.8 1008.8 -
27/07:30pm - - - - - NW 11 13 6 7 1008.5 1008.5 -
27/07:00pm - - - - - WNW 7 11 4 6 1008.2 1008.2 -
27/06:30pm - - - - - WNW 9 11 5 6 1007.8 1007.8 -
27/06:00pm - - - - - NW 9 11 5 6 1007.5 1007.5 -
27/05:30pm - - - - - WNW 7 11 4 6 1007.4 1007.4 -
27/05:00pm - - - - - WSW 9 13 5 7 1007.4 1007.4 -
27/04:30pm - - - - - W 7 11 4 6 1007.4 1007.4 -
27/04:00pm - - - - - WSW 9 11 5 6 1007.2 1007.2 -
27/03:30pm - - - - - WSW 9 11 5 6 1007.4 1007.4 -
27/03:00pm - - - - - W 7 11 4 6 1007.8 1007.8 -
27/02:30pm - - - - - W 9 11 5 6 1008.0 1008.0 -
27/02:00pm - - - - - WSW 11 13 6 7 1008.1 1008.1 -
27/01:30pm - - - - - WSW 11 15 6 8 1008.1 1008.1 -
27/01:00pm - - - - - SW 11 15 6 8 1008.4 1008.4 -
27/12:30pm - - - - - WSW 9 13 5 7 1008.5 1008.5 -
27/12:00pm - - - - - W 11 13 6 7 1008.7 1008.7 -
27/11:30am - - - - - W 11 13 6 7 1008.9 1008.9 -
27/11:00am - - - - - W 13 15 7 8 1009.2 1009.2 -
27/10:30am - - - - - WSW 13 15 7 8 1009.2 1009.2 -
27/10:00am - - - - - W 13 17 7 9 1009.5 1009.5 -
27/09:30am - - - - - WSW 13 17 7 9 1009.5 1009.5 -
27/09:00am - - - - - W 15 17 8 9 1009.4 1009.4 -
27/08:30am - - - - - W 13 17 7 9 1009.4 1009.4 -
27/08:00am - - - - - W 19 20 10 11 1009.1 1009.1 -
27/07:30am - - - - - W 19 22 10 12 1008.9 1008.9 -
27/07:00am - - - - - W 20 22 11 12 1008.2 1008.2 -
27/06:30am - - - - - W 24 28 13 15 1007.7 1007.7 -
27/06:00am - - - - - WNW 24 30 13 16 1006.9 1006.9 -
27/05:30am - - - - - WNW 22 26 12 14 1006.9 1006.9 -
27/05:00am - - - - - WNW 19 20 10 11 1007.0 1007.0 -
27/04:30am - - - - - WNW 17 20 9 11 1006.8 1006.8 -
27/04:00am - - - - - WNW 19 20 10 11 1006.4 1006.4 -
27/03:30am - - - - - WNW 19 20 10 11 1006.6 1006.6 -
27/03:00am - - - - - WNW 15 17 8 9 1006.9 1006.9 -
27/02:30am - - - - - WNW 11 13 6 7 1007.1 1007.1 -
27/02:00am - - - - - WNW 11 15 6 8 1007.1 1007.1 -
27/01:30am - - - - - W 7 9 4 5 1007.5 1007.5 -
27/01:00am - - - - - WNW 6 7 3 4 1008.0 1008.0 -
27/12:30am - - - - - CALM 0 0 0 0 1008.6 1008.6 -
27/12:00am - - - - - S 7 9 4 5 1009.1 1009.1 -
 
Date/Time
WST
Temp
°C
App
Temp
°C
Dew
Point
°C
Rel
Hum
%
Delta-T
°C
Wind Press
QNH
hPa
Press
MSL
hPa
Rain since
9am
mm
Dir  Spd
km/h
Gust
km/h
Spd
kts
Gust
kts
26/11:30pm - - - - - WNW 11 13 6 7 1008.3 1008.3 -
26/11:00pm - - - - - WNW 13 15 7 8 1008.2 1008.2 -
26/10:30pm - - - - - W 13 15 7 8 1008.3 1008.3 -
26/10:00pm - - - - - W 15 17 8 9 1007.8 1007.8 -
26/09:30pm - - - - - WSW 20 24 11 13 1007.6 1007.6 -
26/09:00pm - - - - - W 26 30 14 16 1006.7 1006.7 -
26/08:30pm - - - - - WSW 28 30 15 16 1006.5 1006.5 -
26/08:00pm - - - - - W 28 32 15 17 1006.3 1006.3 -
26/07:30pm - - - - - W 28 32 15 17 1006.2 1006.2 -
26/07:00pm - - - - - W 28 32 15 17 1006.0 1006.0 -
26/06:30pm - - - - - W 28 32 15 17 1005.9 1005.9 -
26/06:00pm - - - - - W 28 32 15 17 1005.7 1005.7 -
26/05:30pm - - - - - W 28 33 15 18 1005.6 1005.6 -
26/05:00pm - - - - - WNW 28 32 15 17 1005.7 1005.7 -
26/04:30pm - - - - - WNW 28 32 15 17 1005.9 1005.9 -
26/04:00pm - - - - - WNW 28 32 15 17 1005.9 1005.9 -
26/03:30pm - - - - - W 30 35 16 19 1006.1 1006.1 -
26/03:00pm - - - - - W 30 35 16 19 1006.3 1006.3 -
26/02:30pm - - - - - W 30 33 16 18 1006.5 1006.5 -
26/02:00pm - - - - - W 26 30 14 16 1007.0 1007.0 -
26/01:30pm - - - - - W 28 32 15 17 1007.0 1007.0 -
26/01:00pm - - - - - W 28 33 15 18 1007.3 1007.3 -
26/12:30pm - - - - - W 28 32 15 17 1007.6 1007.6 -
26/12:00pm - - - - - W 26 28 14 15 1007.9 1007.9 -
26/11:30am - - - - - W 26 30 14 16 1008.1 1008.1 -
26/11:00am - - - - - W 24 28 13 15 1008.3 1008.3 -
26/10:30am - - - - - W 24 28 13 15 1008.5 1008.5 -
26/10:00am - - - - - W 24 28 13 15 1008.8 1008.8 -
26/09:30am - - - - - WSW 22 26 12 14 1009.2 1009.2 -
26/09:00am - - - - - W 24 28 13 15 1008.8 1008.8 -
26/08:30am - - - - - WSW 26 30 14 16 1008.5 1008.5 -
26/08:00am - - - - - WSW 26 32 14 17 1008.5 1008.5 -
26/07:30am - - - - - WSW 26 32 14 17 1008.2 1008.2 -
26/07:00am - - - - - WSW 28 33 15 18 1008.1 1008.1 -
26/06:30am - - - - - WSW 28 32 15 17 1007.8 1007.8 -
26/06:00am - - - - - WSW 28 32 15 17 1007.3 1007.3 -
26/05:30am - - - - - WSW 30 33 16 18 1007.1 1007.1 -
26/05:00am - - - - - WSW 32 35 17 19 1006.7 1006.7 -
26/04:30am - - - - - WSW 32 37 17 20 1006.4 1006.4 -
26/04:00am - - - - - W 32 37 17 20 1006.2 1006.2 -
26/03:30am - - - - - W 32 35 17 19 1006.2 1006.2 -
26/03:00am - - - - - W 32 35 17 19 1006.1 1006.1 -
26/02:30am - - - - - W 33 39 18 21 1006.3 1006.3 -
26/02:00am - - - - - W 33 37 18 20 1006.2 1006.2 -
26/01:30am - - - - - W 32 35 17 19 1006.7 1006.7 -
26/01:00am - - - - - W 32 35 17 19 1006.8 1006.8 -
26/12:30am - - - - - W 32 37 17 20 1007.1 1007.1 -
26/12:00am - - - - - W 32 37 17 20 1007.2 1007.2 -
 
Date/Time
WST
Temp
°C
App
Temp
°C
Dew
Point
°C
Rel
Hum
%
Delta-T
°C
Wind Press
QNH
hPa
Press
MSL
hPa
Rain since
9am
mm
Dir  Spd
km/h
Gust
km/h
Spd
kts
Gust
kts
25/11:30pm - - - - - W 30 35 16 19 1007.5 1007.5 -
25/11:00pm - - - - - W 28 32 15 17 1007.9 1007.9 -
25/10:30pm - - - - - W 32 35 17 19 1007.9 1007.9 -
25/10:00pm - - - - - WSW 30 35 16 19 1007.9 1007.9 -
25/09:30pm - - - - - WSW 32 35 17 19 1007.8 1007.8 -

Other formats

Comma delimited format used in spreadsheet applications
http://www.bom.gov.au/fwo/IDW60801/IDW60801.94207.axf

JavaScript Object Notation format (JSON) in row-major order
http://www.bom.gov.au/fwo/IDW60801/IDW60801.94207.json

Data quality

Most of these data are generated automatically and are frequently updated. Quality checks on data are not normally performed. It is possible for incorrect values to appear. Refer to information at About Latest Weather Observations and please check the disclaimer before using these data.